Time;durP1;ratioP1;P1;durP2;ratioP2;P2;SDS_P1;SDS_P2;PMS_P1;PMS_P2;Temp;Humidity;BMP_temperature;BMP_pressure;BME280_temperature;BME280_humidity;BME280_pressure;Samples;Min_cycle;Max_cycle;Signal;HPM_P1;HPM_P2
2021/08/28 00:01:30;;;;;;;;;;;;;;;14.83;61.50;99779.44;4442555;32;34193;-93
2021/08/28 00:04:18;;;;;;;;;;;;;;;14.77;61.78;99777.44;4424783;32;33692;-94
2021/08/28 00:06:48;;;;;;;;;;;;;;;14.68;61.67;99777.63;4442606;32;35497;-93
2021/08/28 00:09:18;;;;;;;;;;;;;;;14.73;61.87;99780.66;4442347;32;34911;-95
2021/08/28 00:11:47;;;;;;;;;;;;;;;14.71;61.94;99772.78;4427862;32;33561;-93
2021/08/28 00:14:16;;;;;;;;;;;;;;;14.80;61.91;99777.09;4441651;32;34959;-91
2021/08/28 00:16:45;;;;;;;;;;;;;;;14.78;62.07;99775.59;4438228;32;33770;-92
2021/08/28 00:19:13;;;;;;;;;;;;;;;15.02;61.63;99778.22;4417665;32;33771;-95
2021/08/28 00:21:42;;;;;;;;;;;;;;;15.24;60.93;99777.44;4438231;32;34544;-94
2021/08/28 00:24:13;;;;;;;;;;;;;;;15.43;59.35;99785.09;4446607;32;32887;-96
2021/08/28 00:26:45;;;;;;;;;;;;;;;15.43;59.08;99788.63;4428205;32;33833;-93
2021/08/28 00:29:18;;;;;;;;;;;;;;;15.21;60.74;99785.84;4426660;32;33781;-94
2021/08/28 00:31:47;;;;;;;;;;;;;;;15.11;61.25;99794.06;4437533;32;36018;-94
2021/08/28 00:34:18;;;;;;;;;;;;;;;15.07;61.34;99795.44;4437140;32;33628;-94
2021/08/28 00:36:47;;;;;;;;;;;;;;;15.09;61.40;99798.78;4441176;32;33736;-95
2021/08/28 00:39:17;;;;;;;;;;;;;;;14.98;61.54;99784.91;4441196;32;35235;-94
2021/08/28 00:41:46;;;;;;;;;;;;;;;15.15;60.92;99794.56;4444999;32;34870;-95
2021/08/28 00:44:15;;;;;;;;;;;;;;;15.11;60.92;99788.72;4424962;32;33233;-95
2021/08/28 00:46:55;;;;;;;;;;;;;;;15.12;60.83;99789.56;4439413;32;34788;-93
2021/08/28 00:49:52;;;;;;;;;;;;;;;15.10;60.76;99789.72;4430280;32;34683;-91
2021/08/28 00:52:28;;;;;;;;;;;;;;;15.18;60.62;99787.03;4442716;32;34007;-92
2021/08/28 00:54:59;;;;;;;;;;;;;;;15.29;60.23;99785.81;4441689;32;33368;-94
2021/08/28 00:57:38;;;;;;;;;;;;;;;15.25;60.05;99788.00;4446759;32;34006;-95
2021/08/28 01:00:09;;;;;;;;;;;;;;;15.22;60.12;99785.66;4442646;32;34718;-95
2021/08/28 01:02:46;;;;;;;;;;;;;;;15.22;60.08;99782.16;4430300;32;34977;-90
2021/08/28 01:05:22;;;;;;;;;;;;;;;15.35;58.93;99782.44;4438235;32;33665;-93
2021/08/28 01:08:20;;;;;;;;;;;;;;;15.33;59.09;99776.44;4437982;32;34073;-93
2021/08/28 01:10:56;;;;;;;;;;;;;;;15.28;59.18;99773.41;4438754;32;34902;-91
2021/08/28 01:13:25;;;;;;;;;;;;;;;15.21;59.50;99780.50;4423039;32;33879;-95
2021/08/28 01:15:59;;;;;;;;;;;;;;;15.19;59.48;99780.66;4424333;32;32236;-94
2021/08/28 01:18:28;;;;;;;;;;;;;;;15.10;60.03;99781.69;4435624;32;33020;-95
2021/08/28 01:21:15;;;;;;;;;;;;;;;15.06;60.26;99780.37;4421401;32;35383;-94
2021/08/28 01:23:48;;;;;;;;;;;;;;;15.00;60.78;99783.75;4437039;32;32960;-95
2021/08/28 01:26:21;;;;;;;;;;;;;;;14.85;61.23;99781.94;4434619;32;32714;-95
2021/08/28 01:28:55;;;;;;;;;;;;;;;15.06;60.52;99780.37;4436846;32;33468;-93
2021/08/28 01:31:24;;;;;;;;;;;;;;;15.04;60.04;99778.88;4435894;32;35202;-93
2021/08/28 01:33:56;;;;;;;;;;;;;;;15.03;59.45;99775.34;4435281;32;33900;-92
2021/08/28 01:36:27;;;;;;;;;;;;;;;15.05;59.55;99780.53;4432005;32;32542;-93
2021/08/28 01:38:56;;;;;;;;;;;;;;;14.94;59.90;99783.59;4436382;32;33797;-95
2021/08/28 01:41:26;;;;;;;;;;;;;;;14.85;60.26;99781.94;4435083;32;35035;-94
2021/08/28 01:43:54;;;;;;;;;;;;;;;14.62;61.62;99784.50;4437528;32;33498;-95
2021/08/28 01:46:25;;;;;;;;;;;;;;;14.86;59.99;99776.41;4428093;32;32374;-95
2021/08/28 01:48:54;;;;;;;;;;;;;;;14.72;59.80;99784.31;4410737;32;33692;-95
2021/08/28 01:51:27;;;;;;;;;;;;;;;14.58;61.01;99785.00;4434942;32;34968;-94
2021/08/28 01:53:59;;;;;;;;;;;;;;;14.57;60.75;99772.63;4439935;32;33566;-92
2021/08/28 01:56:30;;;;;;;;;;;;;;;14.76;59.75;99780.28;4422999;32;32750;-92
2021/08/28 01:59:06;;;;;;;;;;;;;;;14.60;60.41;99778.50;4434007;32;33318;-93
2021/08/28 02:01:35;;;;;;;;;;;;;;;14.51;61.22;99779.50;4438103;32;35160;-94
2021/08/28 02:04:05;;;;;;;;;;;;;;;14.56;60.99;99773.66;4436770;32;34615;-92
2021/08/28 02:06:35;;;;;;;;;;;;;;;14.47;61.48;99772.00;4438416;32;32780;-95
2021/08/28 02:09:06;;;;;;;;;;;;;;;14.66;60.38;99768.94;4439203;32;34192;-94
2021/08/28 02:11:59;;;;;;;;;;;;;;;14.66;59.71;99772.44;4432661;32;36390;-94
2021/08/28 02:14:34;;;;;;;;;;;;;;;14.47;60.75;99766.63;4434355;32;33835;-94
2021/08/28 02:17:03;;;;;;;;;;;;;;;14.68;59.88;99769.59;4438338;32;33199;-93
2021/08/28 02:19:38;;;;;;;;;;;;;;;14.56;60.41;99769.09;4437641;32;33663;-91
2021/08/28 02:22:20;;;;;;;;;;;;;;;14.64;60.36;99771.78;4424955;32;34821;-95
2021/08/28 02:24:56;;;;;;;;;;;;;;;14.62;60.60;99772.94;4424542;32;35286;-94
2021/08/28 02:27:25;;;;;;;;;;;;;;;14.60;60.82;99765.09;4434870;32;33590;-94
2021/08/28 02:29:55;;;;;;;;;;;;;;;14.64;61.03;99760.25;4421187;32;35152;-94
2021/08/28 02:32:23;;;;;;;;;;;;;;;14.64;60.91;99752.22;4433935;32;34876;-93
2021/08/28 02:34:51;;;;;;;;;;;;;;;14.51;61.14;99755.41;4434945;32;35068;-92
2021/08/28 02:37:21;;;;;;;;;;;;;;;14.54;60.82;99755.06;4436879;32;34250;-96
2021/08/28 02:39:49;;;;;;;;;;;;;;;14.57;60.56;99754.72;4436801;32;34637;-93
2021/08/28 02:42:17;;;;;;;;;;;;;;;14.51;60.77;99754.56;4436391;32;36009;-92
2021/08/28 02:44:48;;;;;;;;;;;;;;;14.32;61.76;99754.09;4423202;32;35693;-90
2021/08/28 02:47:15;;;;;;;;;;;;;;;14.45;60.79;99756.09;4438730;32;32896;-92
2021/08/28 02:49:44;;;;;;;;;;;;;;;14.56;60.17;99750.37;4436528;32;33645;-95
2021/08/28 02:52:14;;;;;;;;;;;;;;;14.50;60.45;99756.44;4435121;32;34037;-95
2021/08/28 02:54:42;;;;;;;;;;;;;;;14.31;61.27;99752.41;4424248;32;34273;-96
2021/08/28 02:57:12;;;;;;;;;;;;;;;14.33;61.42;99753.09;4436263;32;32031;-93
2021/08/28 02:59:41;;;;;;;;;;;;;;;13.74;62.89;99754.22;4451381;32;33037;-94
2021/08/28 03:02:09;;;;;;;;;;;;;;;13.95;62.46;99751.06;4438265;32;35410;-95
2021/08/28 03:04:38;;;;;;;;;;;;;;;14.02;62.78;99744.88;4436950;32;34059;-93
2021/08/28 03:07:07;;;;;;;;;;;;;;;14.32;61.57;99740.72;4438216;32;33729;-96
2021/08/28 03:09:36;;;;;;;;;;;;;;;14.50;61.01;99751.06;4437348;32;33675;-95
2021/08/28 03:12:04;;;;;;;;;;;;;;;14.41;61.40;99750.41;4437050;32;35254;-95
2021/08/28 03:14:34;;;;;;;;;;;;;;;14.41;61.25;99742.37;4421528;32;35706;-92
2021/08/28 03:17:02;;;;;;;;;;;;;;;14.32;61.42;99741.53;4421986;32;34114;-95
2021/08/28 03:19:32;;;;;;;;;;;;;;;14.29;61.62;99751.75;4431396;32;34205;-91
2021/08/28 03:22:01;;;;;;;;;;;;;;;14.38;61.25;99747.06;4435292;32;34480;-95
2021/08/28 03:24:30;;;;;;;;;;;;;;;14.50;60.34;99752.91;4425548;32;34085;-96
2021/08/28 03:27:01;;;;;;;;;;;;;;;14.59;59.76;99746.53;4431900;32;33827;-93
2021/08/28 03:29:30;;;;;;;;;;;;;;;14.53;59.32;99742.69;4432798;32;33339;-94
2021/08/28 03:31:59;;;;;;;;;;;;;;;14.49;59.46;99746.69;4437088;32;35209;-94
2021/08/28 03:34:29;;;;;;;;;;;;;;;14.43;60.17;99745.72;4433501;32;35447;-94
2021/08/28 03:36:58;;;;;;;;;;;;;;;14.13;61.80;99746.41;4437355;32;33390;-90
2021/08/28 03:39:29;;;;;;;;;;;;;;;14.18;62.05;99750.28;4421869;32;35280;-92
2021/08/28 03:41:58;;;;;;;;;;;;;;;14.20;62.13;99752.75;4429010;32;33882;-92
2021/08/28 03:44:26;;;;;;;;;;;;;;;14.23;62.46;99747.91;4435052;32;35429;-94
2021/08/28 03:46:59;;;;;;;;;;;;;;;14.29;62.44;99747.25;4436345;32;34168;-95
2021/08/28 03:49:28;;;;;;;;;;;;;;;14.36;62.34;99747.41;4440815;32;34807;-94
2021/08/28 03:51:57;;;;;;;;;;;;;;;14.26;62.44;99744.06;4449425;32;35076;-93
2021/08/28 03:54:25;;;;;;;;;;;;;;;14.38;62.07;99745.38;4437085;32;34471;-92
2021/08/28 03:56:53;;;;;;;;;;;;;;;14.45;61.92;99745.38;4446633;32;34487;-94
2021/08/28 03:59:22;;;;;;;;;;;;;;;14.39;61.80;99745.22;4419094;32;35085;-94
2021/08/28 04:01:50;;;;;;;;;;;;;;;14.45;61.24;99747.19;4435027;32;36262;-91
2021/08/28 04:04:22;;;;;;;;;;;;;;;14.45;61.28;99749.87;4433515;32;35101;-94
2021/08/28 04:06:50;;;;;;;;;;;;;;;14.49;61.36;99752.03;4424708;32;33553;-93
2021/08/28 04:09:20;;;;;;;;;;;;;;;13.37;64.83;99751.13;4433140;32;34356;-94
2021/08/28 04:11:49;;;;;;;;;;;;;;;13.04;66.51;99752.00;4438340;32;35146;-93
2021/08/28 04:14:17;;;;;;;;;;;;;;;13.40;65.26;99755.31;4440282;32;34939;-94
2021/08/28 04:16:54;;;;;;;;;;;;;;;12.73;68.17;99758.00;4451564;32;33620;-92
2021/08/28 04:19:23;;;;;;;;;;;;;;;12.54;69.67;99756.41;4437003;32;34494;-90
2021/08/28 04:21:54;;;;;;;;;;;;;;;13.33;66.68;99757.78;4437221;32;35477;-92
2021/08/28 04:24:27;;;;;;;;;;;;;;;13.92;64.47;99765.59;4440867;32;34455;-94
2021/08/28 04:26:58;;;;;;;;;;;;;;;14.17;64.12;99771.81;4438213;32;33737;-94
2021/08/28 04:29:26;;;;;;;;;;;;;;;14.30;63.83;99767.66;4436885;32;35423;-94
2021/08/28 04:31:55;;;;;;;;;;;;;;;13.97;65.13;99763.25;4426147;32;36809;-94
2021/08/28 04:34:24;;;;;;;;;;;;;;;14.38;63.79;99761.44;4423810;32;33714;-94
2021/08/28 04:36:52;;;;;;;;;;;;;;;14.03;64.96;99767.94;4443297;32;33214;-92
2021/08/28 04:39:23;;;;;;;;;;;;;;;13.02;68.92;99759.34;4425933;32;35397;-93
2021/08/28 04:41:52;;;;;;;;;;;;;;;12.55;71.13;99770.59;4440539;32;35628;-91
2021/08/28 04:44:21;;;;;;;;;;;;;;;12.45;72.24;99767.16;4439618;32;35408;-96
2021/08/28 04:46:52;;;;;;;;;;;;;;;13.16;68.85;99760.59;4424319;32;34320;-93
2021/08/28 04:49:24;;;;;;;;;;;;;;;13.48;67.31;99772.22;4441631;32;34100;-95
2021/08/28 04:51:54;;;;;;;;;;;;;;;14.00;65.62;99773.66;4441619;32;35113;-95
2021/08/28 04:54:23;;;;;;;;;;;;;;;14.05;65.65;99778.50;4440879;32;34910;-92
2021/08/28 04:56:56;;;;;;;;;;;;;;;14.50;64.43;99783.19;4436831;32;34696;-94
2021/08/28 04:59:42;;;;;;;;;;;;;;;14.38;65.21;99775.69;4438348;32;34539;-91
2021/08/28 05:02:30;;;;;;;;;;;;;;;14.75;64.41;99783.97;4433825;32;35499;-93
2021/08/28 05:05:07;;;;;;;;;;;;;;;15.04;63.54;99785.06;4427221;32;36722;-96
2021/08/28 05:07:38;;;;;;;;;;;;;;;14.97;63.93;99792.12;4438154;32;34728;-96
2021/08/28 05:10:28;;;;;;;;;;;;;;;14.99;64.01;99789.25;4429921;32;33589;-95
2021/08/28 05:13:01;;;;;;;;;;;;;;;15.06;63.62;99791.09;4441221;32;35756;-95
2021/08/28 05:15:31;;;;;;;;;;;;;;;14.78;65.03;99797.03;4429272;32;34456;-95
2021/08/28 05:18:05;;;;;;;;;;;;;;;14.31;66.64;99809.47;4437842;32;32352;-96
2021/08/28 05:20:33;;;;;;;;;;;;;;;14.39;66.55;99804.94;4441623;32;34246;-96
2021/08/28 05:23:19;;;;;;;;;;;;;;;14.49;66.35;99800.22;4443952;32;35455;-96
2021/08/28 05:25:55;;;;;;;;;;;;;;;14.48;66.76;99803.09;4410642;32;33760;-95
2021/08/28 05:28:28;;;;;;;;;;;;;;;14.52;66.44;99807.94;4443121;32;33527;-93
2021/08/28 05:30:59;;;;;;;;;;;;;;;14.90;65.25;99812.56;4438740;32;33848;-93
2021/08/28 05:33:31;;;;;;;;;;;;;;;14.67;65.72;99814.28;4435815;32;35244;-96
2021/08/28 05:36:02;;;;;;;;;;;;;;;14.75;66.11;99802.72;4420631;32;35490;-93
2021/08/28 05:38:32;;;;;;;;;;;;;;;15.13;64.97;99807.31;4426903;32;33141;-95
2021/08/28 05:41:00;;;;;;;;;;;;;;;15.66;63.40;99807.41;4427223;32;34079;-90
2021/08/28 05:43:29;;;;;;;;;;;;;;;15.77;63.88;99797.13;4443032;32;34898;-90
2021/08/28 05:46:11;;;;;;;;;;;;;;;16.10;62.90;99789.69;4446973;32;35415;-94
2021/08/28 05:48:54;;;;;;;;;;;;;;;16.12;63.32;99793.03;4444615;32;33895;-95
2021/08/28 05:51:25;;;;;;;;;;;;;;;15.88;64.55;99793.22;4438203;32;35159;-96
2021/08/28 05:53:54;;;;;;;;;;;;;;;16.18;64.00;99795.00;4453294;32;35425;-94
2021/08/28 05:56:23;;;;;;;;;;;;;;;16.32;63.42;99792.38;4442750;32;35306;-94
2021/08/28 05:58:53;;;;;;;;;;;;;;;16.64;62.41;99788.59;4440852;32;33752;-95
2021/08/28 06:01:22;;;;;;;;;;;;;;;16.69;62.54;99789.72;4440084;32;33621;-94
2021/08/28 06:03:52;;;;;;;;;;;;;;;16.83;62.33;99788.91;4442879;32;35136;-95
2021/08/28 06:06:20;;;;;;;;;;;;;;;16.62;63.14;99793.31;4442582;32;34702;-94
2021/08/28 06:08:56;;;;;;;;;;;;;;;16.85;62.60;99788.72;4452318;32;32109;-92
2021/08/28 06:11:28;;;;;;;;;;;;;;;16.86;62.63;99790.38;4441647;32;33784;-90
2021/08/28 06:14:02;;;;;;;;;;;;;;;17.06;61.51;99788.84;4439127;32;34462;-90
2021/08/28 06:16:49;;;;;;;;;;;;;;;16.62;61.14;99796.00;4443189;32;34938;-96
2021/08/28 06:19:21;;;;;;;;;;;;;;;16.64;61.15;99791.28;4442460;32;34602;-95
2021/08/28 06:21:52;;;;;;;;;;;;;;;17.01;60.54;99791.22;4442698;32;35194;-95
2021/08/28 06:24:24;;;;;;;;;;;;;;;17.18;59.96;99782.78;4437253;32;34880;-96
2021/08/28 06:27:02;;;;;;;;;;;;;;;17.12;60.17;99790.75;4440941;32;35003;-96
2021/08/28 06:29:32;;;;;;;;;;;;;;;17.37;60.01;99786.78;4441362;32;33040;-96
2021/08/28 06:32:02;;;;;;;;;;;;;;;17.45;60.38;99792.06;4439908;32;34748;-90
2021/08/28 06:34:30;;;;;;;;;;;;;;;17.38;61.23;99791.16;4439119;32;37363;-94
2021/08/28 06:36:58;;;;;;;;;;;;;;;17.61;60.38;99793.53;4424846;32;36136;-93
2021/08/28 06:39:32;;;;;;;;;;;;;;;17.67;59.84;99787.37;4435377;32;33479;-93
2021/08/28 06:42:03;;;;;;;;;;;;;;;17.85;58.66;99785.09;4441434;32;34152;-96
2021/08/28 06:45:05;;;;;;;;;;;;;;;17.88;58.68;99789.28;4439458;32;36070;-95
2021/08/28 06:47:41;;;;;;;;;;;;;;;17.88;58.91;99787.41;4442622;32;36139;-95
2021/08/28 06:50:22;;;;;;;;;;;;;;;18.01;58.39;99786.72;4451532;32;32064;-95
2021/08/28 06:53:01;;;;;;;;;;;;;;;17.99;58.60;99788.75;4438183;32;34400;-93
2021/08/28 06:55:57;;;;;;;;;;;;;;;18.40;58.80;99792.50;4441195;32;35709;-92
2021/08/28 06:58:39;;;;;;;;;;;;;;;18.44;57.63;99791.91;4437835;32;34792;-95
2021/08/28 07:01:10;;;;;;;;;;;;;;;18.51;57.17;99789.28;4442441;32;32112;-92
2021/08/28 07:03:46;;;;;;;;;;;;;;;18.64;56.84;99776.75;4439421;32;34374;-95
2021/08/28 07:06:20;;;;;;;;;;;;;;;18.58;56.48;99774.00;4430292;32;35502;-90
2021/08/28 07:08:49;;;;;;;;;;;;;;;18.54;57.91;99780.81;4440287;32;34550;-89
2021/08/28 07:11:18;;;;;;;;;;;;;;;18.59;57.30;99776.50;4434458;32;33484;-89
2021/08/28 07:13:46;;;;;;;;;;;;;;;18.63;56.81;99777.78;4434054;32;33874;-93
2021/08/28 07:16:19;;;;;;;;;;;;;;;18.92;56.69;99776.72;4436904;32;36636;-95
2021/08/28 07:19:09;;;;;;;;;;;;;;;18.85;56.58;99774.00;4439606;32;33537;-96
2021/08/28 07:21:39;;;;;;;;;;;;;;;19.03;56.57;99773.47;4440498;32;32327;-87
2021/08/28 07:24:09;;;;;;;;;;;;;;;18.91;57.02;99775.91;4442948;32;34179;-94
2021/08/28 07:26:38;;;;;;;;;;;;;;;19.22;55.46;99768.25;4444108;32;35252;-90
2021/08/28 07:29:20;;;;;;;;;;;;;;;19.12;56.09;99775.00;4443693;32;34648;-95
2021/08/28 07:31:56;;;;;;;;;;;;;;;19.41;54.94;99766.66;4440133;32;33366;-91
2021/08/28 07:34:25;;;;;;;;;;;;;;;19.55;54.48;99771.91;4426013;32;35988;-93
2021/08/28 07:36:55;;;;;;;;;;;;;;;19.15;55.01;99777.31;4441862;32;35076;-94
2021/08/28 07:39:27;;;;;;;;;;;;;;;19.31;55.12;99769.75;4428126;32;35275;-91
2021/08/28 07:41:55;;;;;;;;;;;;;;;19.33;54.44;99764.13;4427201;32;33611;-93
2021/08/28 07:44:22;;;;;;;;;;;;;;;19.56;53.93;99762.78;4423039;32;35110;-96
2021/08/28 07:46:51;;;;;;;;;;;;;;;19.35;54.24;99772.87;4436473;32;35654;-88
2021/08/28 07:49:21;;;;;;;;;;;;;;;19.05;54.30;99777.66;4442722;32;35688;-90
2021/08/28 07:51:50;;;;;;;;;;;;;;;19.42;53.90;99776.41;4435525;32;33750;-90
2021/08/28 07:54:23;;;;;;;;;;;;;;;19.42;54.46;99779.97;4449240;32;33383;-91
2021/08/28 07:56:54;;;;;;;;;;;;;;;19.32;54.35;99775.94;4429199;32;34382;-90
2021/08/28 07:59:26;;;;;;;;;;;;;;;19.46;54.11;99780.37;4440382;32;35363;-90
2021/08/28 08:02:03;;;;;;;;;;;;;;;19.43;53.81;99781.63;4431986;32;32784;-90
2021/08/28 08:05:04;;;;;;;;;;;;;;;19.38;53.74;99769.75;4436896;32;34521;-91
2021/08/28 08:07:36;;;;;;;;;;;;;;;19.48;53.56;99768.38;4439919;32;35476;-95
2021/08/28 08:10:20;;;;;;;;;;;;;;;19.87;53.21;99765.78;4438653;32;35025;-90
2021/08/28 08:12:58;;;;;;;;;;;;;;;19.85;53.66;99764.31;4438005;32;34888;-93
2021/08/28 08:15:40;;;;;;;;;;;;;;;19.84;52.08;99762.66;4437545;32;33581;-89
2021/08/28 08:18:19;;;;;;;;;;;;;;;20.00;51.32;99759.59;4439933;32;35371;-96
2021/08/28 08:21:08;;;;;;;;;;;;;;;19.98;51.26;99761.62;4435801;32;33996;-91
2021/08/28 08:24:06;;;;;;;;;;;;;;;20.11;51.71;99759.00;4435963;32;32740;-93
2021/08/28 08:26:58;;;;;;;;;;;;;;;20.03;52.16;99751.06;4437751;32;33932;-90
2021/08/28 08:29:32;;;;;;;;;;;;;;;20.28;51.72;99754.88;4439448;32;35851;-90
2021/08/28 08:32:14;;;;;;;;;;;;;;;20.37;50.82;99749.03;4433189;32;33607;-91
2021/08/28 08:34:42;;;;;;;;;;;;;;;20.15;51.58;99753.00;4444238;32;33668;-88
2021/08/28 08:37:21;;;;;;;;;;;;;;;20.43;50.70;99748.22;4439254;32;34499;-88
2021/08/28 08:40:05;;;;;;;;;;;;;;;20.55;50.49;99753.84;4438949;32;36017;-88
2021/08/28 08:42:55;;;;;;;;;;;;;;;20.62;50.84;99750.09;4426734;32;34652;-88
2021/08/28 09:12:38;;;;;;;;;;;;;;;;;;;;;
2021/08/28 09:26:02;;;;;;;;;;;;;;;21.78;47.04;99756.22;4322134;33;32392;-89
2021/08/28 09:29:59;;;;;;;;;;;;;;;21.48;46.70;99753.22;4316475;33;34626;-89
2021/08/28 09:32:31;;;;;;;;;;;;;;;;;;;;;
2021/08/28 09:44:48;;;;;;;;;;;;;;;22.42;44.11;99741.44;4344602;33;35974;-92
2021/08/28 09:51:36;;;;;;;;;;;;;;;22.10;44.41;99747.91;4422081;32;33734;-94
2021/08/28 09:54:51;;;;;;;;;;;;;;;22.64;44.28;99739.19;4399516;32;34551;-92
2021/08/28 10:04:02;;;;;;;;;;;;;;;23.07;42.37;99739.97;4335897;33;32918;-91
2021/08/28 10:10:23;;;;;;;;;;;;;;;;;;;;;
2021/08/28 10:13:07;;;;;;;;;;;;;;;23.47;41.46;99722.19;4360649;32;33726;-93
2021/08/28 10:38:59;;;;;;;;;;;;;;;24.95;37.81;99690.97;4437874;32;33390;-87
2021/08/28 10:51:58;;;;;;;;;;;;;;;25.30;38.23;99695.31;4437873;32;34949;-88
2021/08/28 10:54:44;;;;;;;;;;;;;;;24.76;37.62;99697.63;4391790;32;32437;-92
2021/08/28 10:57:48;;;;;;;;;;;;;;;24.94;36.01;99698.31;4394811;32;34919;-91
2021/08/28 11:07:17;;;;;;;;;;;;;;;24.48;38.03;99679.25;4395395;32;33193;-92
2021/08/28 11:10:29;;;;;;;;;;;;;;;;;;;;;
2021/08/28 11:14:07;;;;;;;;;;;;;;;24.74;37.06;99678.81;4367705;32;34670;-91
2021/08/28 11:20:02;;;;;;;;;;;;;;;25.06;39.54;99661.03;4408999;32;33720;-88
2021/08/28 11:26:05;;;;;;;;;;;;;;;25.66;38.32;99661.44;4437893;32;35222;-89
2021/08/28 11:28:58;;;;;;;;;;;;;;;25.66;37.50;99662.25;4437306;32;34872;-85
2021/08/28 11:42:08;;;;;;;;;;;;;;;25.48;37.16;99669.81;4436597;32;34856;-91
2021/08/28 11:48:43;;;;;;;;;;;;;;;25.05;36.40;99666.69;4417983;32;34190;-91
2021/08/28 12:04:42;;;;;;;;;;;;;;;24.74;37.64;99658.94;4405590;32;35700;-91
2021/08/28 12:14:48;;;;;;;;;;;;;;;24.89;37.55;99642.94;4346108;33;33885;-88
2021/08/28 12:22:04;;;;;;;;;;;;;;;25.24;36.28;99641.00;4326336;33;34758;-93
2021/08/28 12:27:42;;;;;;;;;;;;;;;24.97;32.35;99648.84;4316249;32;34692;-95
2021/08/28 12:30:55;;;;;;;;;;;;;;;25.53;34.02;99653.53;4362840;32;35159;-87
2021/08/28 12:33:59;;;;;;;;;;;;;;;25.72;34.46;99652.25;4350578;32;34765;-90
2021/08/28 12:37:29;;;;;;;;;;;;;;;;;;;;;
2021/08/28 12:41:40;;;;;;;;;;;;;;;25.96;32.76;99649.19;4371841;32;34685;-90
2021/08/28 12:46:55;;;;;;;;;;;;;;;25.57;30.93;99641.09;4334898;33;34138;-90
2021/08/28 12:54:07;;;;;;;;;;;;;;;25.44;34.70;99623.16;4323705;33;33721;-88
2021/08/28 12:56:26;;;;;;;;;;;;;;;26.06;32.61;99621.28;4344401;33;34721;-91
2021/08/28 13:07:35;;;;;;;;;;;;;;;25.71;32.76;99615.19;4289513;33;33403;-86
2021/08/28 13:10:48;;;;;;;;;;;;;;;25.67;33.40;99606.69;4314988;33;34566;-86
2021/08/28 13:14:39;;;;;;;;;;;;;;;25.71;34.03;99596.13;4308601;33;34354;-91
2021/08/28 13:17:04;;;;;;;;;;;;;;;25.23;31.97;99587.59;4311360;33;33552;-86
2021/08/28 13:20:36;;;;;;;;;;;;;;;25.81;32.47;99590.84;4327293;32;34346;-93
2021/08/28 13:23:29;;;;;;;;;;;;;;;25.94;33.96;99587.84;4351830;32;36297;-91
2021/08/28 13:26:37;;;;;;;;;;;;;;;;;;;;;
2021/08/28 13:33:22;;;;;;;;;;;;;;;;;;;;;
2021/08/28 13:36:58;;;;;;;;;;;;;;;26.09;33.45;99597.09;4326187;33;34489;-91
2021/08/28 13:40:00;;;;;;;;;;;;;;;;;;;;;
2021/08/28 13:42:46;;;;;;;;;;;;;;;26.30;33.32;99590.84;4328440;33;33530;-90
2021/08/28 13:46:18;;;;;;;;;;;;;;;25.63;33.52;99583.72;4329355;33;34513;-91
2021/08/28 13:48:50;;;;;;;;;;;;;;;26.06;32.89;99583.13;4328675;33;34700;-89
2021/08/28 13:58:19;;;;;;;;;;;;;;;26.06;31.63;99566.75;4329082;33;34541;-91
2021/08/28 14:01:55;;;;;;;;;;;;;;;25.96;33.62;99569.31;4333608;32;36755;-89
2021/08/28 14:04:58;;;;;;;;;;;;;;;;;;;;;
2021/08/28 14:11:17;;;;;;;;;;;;;;;25.09;30.56;99564.41;4405295;32;33616;-92
2021/08/28 14:15:23;;;;;;;;;;;;;;;26.03;33.20;99573.53;4398443;32;36077;-90
2021/08/28 14:18:12;;;;;;;;;;;;;;;24.33;31.42;99567.41;4372896;32;35614;-91
2021/08/28 14:24:43;;;;;;;;;;;;;;;25.43;33.16;99577.09;4367494;32;34249;-93
2021/08/28 14:27:49;;;;;;;;;;;;;;;25.60;33.89;99576.03;4393688;32;36233;-93
2021/08/28 14:31:20;;;;;;;;;;;;;;;23.96;31.87;99582.31;4398056;32;33988;-90
2021/08/28 14:34:22;;;;;;;;;;;;;;;;;;;;;
2021/08/28 14:37:15;;;;;;;;;;;;;;;23.71;31.75;99577.28;4414108;32;33741;-90
2021/08/28 14:44:01;;;;;;;;;;;;;;;25.15;35.77;99575.19;4354965;32;33505;-89
2021/08/28 14:47:32;;;;;;;;;;;;;;;;;;;;;
2021/08/28 14:51:05;;;;;;;;;;;;;;;25.01;33.88;99570.25;4364793;32;33269;-91
2021/08/28 14:56:35;;;;;;;;;;;;;;;25.00;35.70;99572.16;4367492;32;34768;-90
2021/08/28 14:59:49;;;;;;;;;;;;;;;24.92;35.89;99580.69;4325388;32;33360;-95
2021/08/28 15:03:34;;;;;;;;;;;;;;;24.71;37.17;99580.50;4368226;32;34580;-91
2021/08/28 15:06:50;;;;;;;;;;;;;;;24.71;36.64;99586.78;4377638;32;34837;-91
2021/08/28 15:13:03;;;;;;;;;;;;;;;24.41;34.29;99582.53;4297890;33;34176;-91
2021/08/28 15:16:01;;;;;;;;;;;;;;;24.53;34.69;99583.34;4306831;33;34294;-88
2021/08/28 15:19:10;;;;;;;;;;;;;;;24.58;34.31;99580.78;4312671;33;34505;-92
2021/08/28 15:37:45;;;;;;;;;;;;;;;24.43;35.31;99570.34;4314878;33;34112;-92
2021/08/28 15:40:52;;;;;;;;;;;;;;;24.36;36.06;99569.66;4307732;33;33978;-93
2021/08/28 15:44:51;;;;;;;;;;;;;;;24.31;37.16;99571.44;4310437;33;35352;-90
2021/08/28 15:47:25;;;;;;;;;;;;;;;24.38;37.19;99569.44;4327808;32;34516;-93
2021/08/28 15:50:56;;;;;;;;;;;;;;;24.40;37.97;99576.28;4352668;32;31945;-91
2021/08/28 15:54:01;;;;;;;;;;;;;;;;;;;;;
2021/08/28 15:57:20;;;;;;;;;;;;;;;24.27;38.34;99578.41;4360935;32;35929;-90
2021/08/28 16:00:22;;;;;;;;;;;;;;;;;;;;;
2021/08/28 16:07:15;;;;;;;;;;;;;;;24.20;38.35;99567.66;4357529;32;34452;-91
2021/08/28 16:09:32;;;;;;;;;;;;;;;24.18;38.55;99583.38;4401230;32;34417;-91
2021/08/28 16:16:50;;;;;;;;;;;;;;;24.12;38.66;99570.75;4420470;32;35709;-91
2021/08/28 16:19:03;;;;;;;;;;;;;;;24.07;39.82;99577.91;4429625;32;36083;-91
2021/08/28 16:24:48;;;;;;;;;;;;;;;24.00;41.14;99560.94;4415918;32;34078;-93
2021/08/28 16:31:19;;;;;;;;;;;;;;;;;;;;;
2021/08/28 16:37:24;;;;;;;;;;;;;;;23.86;42.16;99564.91;4440090;32;35255;-91
2021/08/28 16:40:22;;;;;;;;;;;;;;;23.85;41.39;99565.16;4425948;32;34414;-92
2021/08/28 16:43:27;;;;;;;;;;;;;;;23.71;41.17;99550.94;4437936;32;34484;-91
2021/08/28 16:46:39;;;;;;;;;;;;;;;23.62;41.39;99557.78;4421837;32;34829;-90
2021/08/28 16:52:54;;;;;;;;;;;;;;;23.64;41.57;99560.25;4436993;32;34954;-92
2021/08/28 17:05:59;;;;;;;;;;;;;;;;;;;;;
2021/08/28 17:09:09;;;;;;;;;;;;;;;23.33;44.62;99555.94;4380385;32;32931;-92
2021/08/28 17:12:19;;;;;;;;;;;;;;;23.31;44.64;99549.88;4373334;32;34953;-92
2021/08/28 17:15:38;;;;;;;;;;;;;;;;;;;;;
2021/08/28 17:18:40;;;;;;;;;;;;;;;;;;;;;
2021/08/28 17:25:01;;;;;;;;;;;;;;;23.05;43.63;99569.25;4369733;32;34778;-91
2021/08/28 17:31:43;;;;;;;;;;;;;;;22.75;43.61;99572.97;4377649;32;33602;-92
2021/08/28 17:35:35;;;;;;;;;;;;;;;22.65;43.70;99570.78;4373909;32;35838;-92
2021/08/28 17:41:24;;;;;;;;;;;;;;;22.44;44.50;99573.97;4342071;32;35149;-95
2021/08/28 17:44:32;;;;;;;;;;;;;;;22.41;44.43;99574.44;4393309;32;32385;-91
2021/08/28 17:48:03;;;;;;;;;;;;;;;;;;;;;
2021/08/28 17:55:38;;;;;;;;;;;;;;;;;;;;;
2021/08/28 17:59:05;;;;;;;;;;;;;;;22.27;45.98;99570.16;4374898;32;34435;-92
2021/08/28 18:04:46;;;;;;;;;;;;;;;22.13;46.40;99567.78;4316690;33;35871;-95
2021/08/28 18:11:20;;;;;;;;;;;;;;;21.93;45.38;99569.88;4311123;33;34009;-95
2021/08/28 18:23:28;;;;;;;;;;;;;;;20.92;47.35;99580.94;4317406;33;32454;-94
2021/08/28 18:29:59;;;;;;;;;;;;;;;21.11;47.30;99591.66;4343752;32;34469;-91
2021/08/28 18:33:37;;;;;;;;;;;;;;;21.33;47.05;99584.88;4344093;32;35046;-92
2021/08/28 18:36:07;;;;;;;;;;;;;;;21.47;47.77;99580.19;4342636;33;33501;-91
2021/08/28 18:39:00;;;;;;;;;;;;;;;21.63;46.38;99582.37;4361855;32;34340;-91
2021/08/28 18:41:57;;;;;;;;;;;;;;;20.24;49.95;99586.97;4412707;32;35482;-91
2021/08/28 18:48:20;;;;;;;;;;;;;;;;;;;;;
2021/08/28 18:52:00;;;;;;;;;;;;;;;20.70;50.26;99598.47;4408492;32;35485;-92
2021/08/28 18:54:23;;;;;;;;;;;;;;;20.31;51.84;99605.84;4414465;32;37151;-89
2021/08/28 18:57:12;;;;;;;;;;;;;;;20.09;53.27;99607.16;4414061;32;35530;-93
2021/08/28 19:00:19;;;;;;;;;;;;;;;;;;;;;
2021/08/28 19:06:53;;;;;;;;;;;;;;;;;;;;;
2021/08/28 19:09:59;;;;;;;;;;;;;;;;;;;;;
2021/08/28 19:12:57;;;;;;;;;;;;;;;;;;;;;
2021/08/28 19:19:00;;;;;;;;;;;;;;;20.75;52.67;99615.72;4405941;32;35092;-86
2021/08/28 19:28:51;;;;;;;;;;;;;;;;;;;;;
2021/08/28 19:34:58;;;;;;;;;;;;;;;;;;;;;
2021/08/28 19:51:36;;;;;;;;;;;;;;;20.59;53.36;99613.47;4313341;33;32492;-92
2021/08/28 20:00:47;;;;;;;;;;;;;;;20.93;52.34;99621.31;4316540;33;34417;-88